sensor_id;sensor_type;location;lat;lon;timestamp;P1;durP1;ratioP1;P2;durP2;ratioP2
26822;SDS011;14852;51.910;8.878;2023-03-17T00:01:45;5.45;;;4.07;;
26822;SDS011;14852;51.910;8.878;2023-03-17T00:04:15;5.40;;;4.30;;
26822;SDS011;14852;51.910;8.878;2023-03-17T00:06:43;4.95;;;3.30;;
26822;SDS011;14852;51.910;8.878;2023-03-17T00:09:10;6.25;;;4.05;;
26822;SDS011;14852;51.910;8.878;2023-03-17T00:11:38;5.07;;;3.80;;
26822;SDS011;14852;51.910;8.878;2023-03-17T00:14:05;5.40;;;3.83;;
26822;SDS011;14852;51.910;8.878;2023-03-17T00:16:31;4.28;;;3.47;;
26822;SDS011;14852;51.910;8.878;2023-03-17T00:19:06;3.42;;;3.10;;
26822;SDS011;14852;51.910;8.878;2023-03-17T00:21:42;4.38;;;3.35;;
26822;SDS011;14852;51.910;8.878;2023-03-17T00:24:10;5.85;;;4.07;;
26822;SDS011;14852;51.910;8.878;2023-03-17T00:26:36;4.50;;;3.20;;
26822;SDS011;14852;51.910;8.878;2023-03-17T00:29:02;4.25;;;3.45;;
26822;SDS011;14852;51.910;8.878;2023-03-17T00:31:30;5.68;;;4.32;;
26822;SDS011;14852;51.910;8.878;2023-03-17T00:33:57;4.95;;;3.42;;
26822;SDS011;14852;51.910;8.878;2023-03-17T00:36:25;7.63;;;3.70;;
26822;SDS011;14852;51.910;8.878;2023-03-17T00:38:54;4.78;;;3.10;;
26822;SDS011;14852;51.910;8.878;2023-03-17T00:41:23;5.88;;;4.13;;
26822;SDS011;14852;51.910;8.878;2023-03-17T00:43:49;4.38;;;3.55;;
26822;SDS011;14852;51.910;8.878;2023-03-17T00:48:55;7.30;;;3.50;;
26822;SDS011;14852;51.910;8.878;2023-03-17T00:51:21;3.53;;;2.92;;
26822;SDS011;14852;51.910;8.878;2023-03-17T00:53:47;5.05;;;3.45;;
26822;SDS011;14852;51.910;8.878;2023-03-17T00:56:17;7.50;;;3.63;;
26822;SDS011;14852;51.910;8.878;2023-03-17T00:58:45;4.93;;;3.67;;
26822;SDS011;14852;51.910;8.878;2023-03-17T01:01:14;6.13;;;3.25;;
26822;SDS011;14852;51.910;8.878;2023-03-17T01:03:40;5.05;;;2.90;;
26822;SDS011;14852;51.910;8.878;2023-03-17T01:06:06;6.68;;;2.95;;
26822;SDS011;14852;51.910;8.878;2023-03-17T01:08:35;4.43;;;3.17;;
26822;SDS011;14852;51.910;8.878;2023-03-17T01:11:06;4.10;;;2.88;;
26822;SDS011;14852;51.910;8.878;2023-03-17T01:13:38;4.50;;;3.20;;
26822;SDS011;14852;51.910;8.878;2023-03-17T01:16:07;6.43;;;3.33;;
26822;SDS011;14852;51.910;8.878;2023-03-17T01:18:34;5.60;;;3.42;;
26822;SDS011;14852;51.910;8.878;2023-03-17T01:21:01;10.98;;;4.68;;
26822;SDS011;14852;51.910;8.878;2023-03-17T01:23:27;4.95;;;3.38;;
26822;SDS011;14852;51.910;8.878;2023-03-17T01:25:53;4.63;;;2.92;;
26822;SDS011;14852;51.910;8.878;2023-03-17T01:28:20;5.45;;;3.00;;
26822;SDS011;14852;51.910;8.878;2023-03-17T01:30:46;4.53;;;3.10;;
26822;SDS011;14852;51.910;8.878;2023-03-17T01:33:13;6.05;;;3.50;;
26822;SDS011;14852;51.910;8.878;2023-03-17T01:35:39;4.85;;;2.90;;
26822;SDS011;14852;51.910;8.878;2023-03-17T01:38:07;3.75;;;3.13;;
26822;SDS011;14852;51.910;8.878;2023-03-17T01:40:36;4.57;;;3.03;;
26822;SDS011;14852;51.910;8.878;2023-03-17T01:48:55;3.55;;;2.88;;
26822;SDS011;14852;51.910;8.878;2023-03-17T01:59:55;5.25;;;3.75;;
26822;SDS011;14852;51.910;8.878;2023-03-17T02:02:40;5.55;;;3.80;;
26822;SDS011;14852;51.910;8.878;2023-03-17T02:05:09;5.93;;;4.15;;
26822;SDS011;14852;51.910;8.878;2023-03-17T02:07:39;7.18;;;3.60;;
26822;SDS011;14852;51.910;8.878;2023-03-17T02:10:06;5.25;;;3.92;;
26822;SDS011;14852;51.910;8.878;2023-03-17T02:12:36;7.13;;;4.05;;
26822;SDS011;14852;51.910;8.878;2023-03-17T02:15:03;4.03;;;3.20;;
26822;SDS011;14852;51.910;8.878;2023-03-17T02:17:29;6.28;;;4.05;;
26822;SDS011;14852;51.910;8.878;2023-03-17T02:20:07;5.72;;;3.92;;
26822;SDS011;14852;51.910;8.878;2023-03-17T02:22:49;5.55;;;3.78;;
26822;SDS011;14852;51.910;8.878;2023-03-17T02:25:17;6.93;;;3.72;;
26822;SDS011;14852;51.910;8.878;2023-03-17T02:27:47;4.85;;;3.40;;
26822;SDS011;14852;51.910;8.878;2023-03-17T02:30:19;5.45;;;3.63;;
26822;SDS011;14852;51.910;8.878;2023-03-17T02:32:47;6.30;;;4.60;;
26822;SDS011;14852;51.910;8.878;2023-03-17T02:35:13;5.38;;;3.85;;
26822;SDS011;14852;51.910;8.878;2023-03-17T02:37:40;4.80;;;3.60;;
26822;SDS011;14852;51.910;8.878;2023-03-17T02:40:08;5.82;;;4.18;;
26822;SDS011;14852;51.910;8.878;2023-03-17T02:42:39;5.45;;;4.15;;
26822;SDS011;14852;51.910;8.878;2023-03-17T02:45:07;6.90;;;4.25;;
26822;SDS011;14852;51.910;8.878;2023-03-17T02:47:36;6.68;;;4.57;;
26822;SDS011;14852;51.910;8.878;2023-03-17T02:50:03;5.03;;;4.32;;
26822;SDS011;14852;51.910;8.878;2023-03-17T02:52:30;5.85;;;4.72;;
26822;SDS011;14852;51.910;8.878;2023-03-17T02:54:56;6.15;;;3.63;;
26822;SDS011;14852;51.910;8.878;2023-03-17T02:57:22;5.45;;;3.97;;
26822;SDS011;14852;51.910;8.878;2023-03-17T02:59:48;5.90;;;4.20;;
26822;SDS011;14852;51.910;8.878;2023-03-17T03:02:14;5.47;;;4.22;;
26822;SDS011;14852;51.910;8.878;2023-03-17T03:04:41;6.80;;;4.68;;
26822;SDS011;14852;51.910;8.878;2023-03-17T03:07:07;4.75;;;3.97;;
26822;SDS011;14852;51.910;8.878;2023-03-17T03:09:34;4.13;;;3.42;;
26822;SDS011;14852;51.910;8.878;2023-03-17T03:12:01;5.50;;;4.68;;
26822;SDS011;14852;51.910;8.878;2023-03-17T03:14:27;6.57;;;4.80;;
26822;SDS011;14852;51.910;8.878;2023-03-17T03:16:53;6.30;;;4.53;;
26822;SDS011;14852;51.910;8.878;2023-03-17T03:19:19;5.88;;;4.70;;
26822;SDS011;14852;51.910;8.878;2023-03-17T03:21:45;6.13;;;4.80;;
26822;SDS011;14852;51.910;8.878;2023-03-17T03:24:11;5.90;;;4.43;;
26822;SDS011;14852;51.910;8.878;2023-03-17T03:26:36;5.88;;;4.38;;
26822;SDS011;14852;51.910;8.878;2023-03-17T03:29:03;6.55;;;4.72;;
26822;SDS011;14852;51.910;8.878;2023-03-17T03:31:29;6.43;;;4.43;;
26822;SDS011;14852;51.910;8.878;2023-03-17T03:33:55;5.75;;;4.65;;
26822;SDS011;14852;51.910;8.878;2023-03-17T03:36:21;5.40;;;4.00;;
26822;SDS011;14852;51.910;8.878;2023-03-17T03:38:47;6.47;;;4.65;;
26822;SDS011;14852;51.910;8.878;2023-03-17T03:41:13;6.25;;;4.40;;
26822;SDS011;14852;51.910;8.878;2023-03-17T03:43:39;5.70;;;4.82;;
26822;SDS011;14852;51.910;8.878;2023-03-17T03:46:05;6.15;;;4.53;;
26822;SDS011;14852;51.910;8.878;2023-03-17T03:48:31;5.97;;;4.15;;
26822;SDS011;14852;51.910;8.878;2023-03-17T03:50:57;5.65;;;4.80;;
26822;SDS011;14852;51.910;8.878;2023-03-17T03:53:25;6.90;;;4.70;;
26822;SDS011;14852;51.910;8.878;2023-03-17T03:55:52;7.80;;;4.90;;
26822;SDS011;14852;51.910;8.878;2023-03-17T03:58:19;6.47;;;4.80;;
26822;SDS011;14852;51.910;8.878;2023-03-17T04:00:45;8.88;;;4.90;;
26822;SDS011;14852;51.910;8.878;2023-03-17T04:03:11;5.28;;;4.60;;
26822;SDS011;14852;51.910;8.878;2023-03-17T04:05:38;5.72;;;4.95;;
26822;SDS011;14852;51.910;8.878;2023-03-17T04:08:04;8.90;;;5.20;;
26822;SDS011;14852;51.910;8.878;2023-03-17T04:10:30;7.75;;;5.88;;
26822;SDS011;14852;51.910;8.878;2023-03-17T04:12:57;9.70;;;5.63;;
26822;SDS011;14852;51.910;8.878;2023-03-17T04:15:23;6.80;;;5.35;;
26822;SDS011;14852;51.910;8.878;2023-03-17T04:17:49;6.57;;;5.20;;
26822;SDS011;14852;51.910;8.878;2023-03-17T04:20:16;6.07;;;4.43;;
26822;SDS011;14852;51.910;8.878;2023-03-17T04:22:42;6.30;;;4.68;;
26822;SDS011;14852;51.910;8.878;2023-03-17T04:25:09;7.22;;;5.07;;
26822;SDS011;14852;51.910;8.878;2023-03-17T04:27:37;6.93;;;4.97;;
26822;SDS011;14852;51.910;8.878;2023-03-17T04:30:04;7.72;;;5.55;;
26822;SDS011;14852;51.910;8.878;2023-03-17T04:32:30;6.55;;;5.30;;
26822;SDS011;14852;51.910;8.878;2023-03-17T04:34:56;6.63;;;5.07;;
26822;SDS011;14852;51.910;8.878;2023-03-17T04:37:22;6.80;;;5.05;;
26822;SDS011;14852;51.910;8.878;2023-03-17T04:39:48;8.27;;;5.78;;
26822;SDS011;14852;51.910;8.878;2023-03-17T04:42:15;7.47;;;5.70;;
26822;SDS011;14852;51.910;8.878;2023-03-17T04:44:41;6.13;;;5.25;;
26822;SDS011;14852;51.910;8.878;2023-03-17T04:47:07;6.88;;;5.25;;
26822;SDS011;14852;51.910;8.878;2023-03-17T04:49:33;6.95;;;5.65;;
26822;SDS011;14852;51.910;8.878;2023-03-17T04:51:59;12.57;;;5.95;;
26822;SDS011;14852;51.910;8.878;2023-03-17T04:54:25;6.55;;;5.05;;
26822;SDS011;14852;51.910;8.878;2023-03-17T04:56:51;7.03;;;5.97;;
26822;SDS011;14852;51.910;8.878;2023-03-17T04:59:17;8.38;;;6.15;;
26822;SDS011;14852;51.910;8.878;2023-03-17T05:01:43;10.75;;;7.53;;
26822;SDS011;14852;51.910;8.878;2023-03-17T05:04:09;6.88;;;5.20;;
26822;SDS011;14852;51.910;8.878;2023-03-17T05:06:35;6.93;;;5.32;;
26822;SDS011;14852;51.910;8.878;2023-03-17T05:09:01;5.90;;;4.55;;
26822;SDS011;14852;51.910;8.878;2023-03-17T05:11:27;6.10;;;4.70;;
26822;SDS011;14852;51.910;8.878;2023-03-17T05:13:53;5.07;;;4.45;;
26822;SDS011;14852;51.910;8.878;2023-03-17T05:16:19;6.72;;;5.15;;
26822;SDS011;14852;51.910;8.878;2023-03-17T05:18:45;8.00;;;5.57;;
26822;SDS011;14852;51.910;8.878;2023-03-17T05:21:12;8.02;;;5.05;;
26822;SDS011;14852;51.910;8.878;2023-03-17T05:23:38;7.90;;;4.95;;
26822;SDS011;14852;51.910;8.878;2023-03-17T05:26:04;8.52;;;4.90;;
26822;SDS011;14852;51.910;8.878;2023-03-17T05:28:30;6.70;;;5.30;;
26822;SDS011;14852;51.910;8.878;2023-03-17T05:30:56;5.70;;;4.78;;
26822;SDS011;14852;51.910;8.878;2023-03-17T05:33:22;7.40;;;5.25;;
26822;SDS011;14852;51.910;8.878;2023-03-17T05:35:48;7.65;;;4.90;;
26822;SDS011;14852;51.910;8.878;2023-03-17T05:38:15;7.25;;;4.68;;
26822;SDS011;14852;51.910;8.878;2023-03-17T05:40:41;5.57;;;4.63;;
26822;SDS011;14852;51.910;8.878;2023-03-17T05:43:07;6.88;;;5.60;;
26822;SDS011;14852;51.910;8.878;2023-03-17T05:45:33;6.15;;;5.10;;
26822;SDS011;14852;51.910;8.878;2023-03-17T05:47:59;7.43;;;5.35;;
26822;SDS011;14852;51.910;8.878;2023-03-17T05:50:25;8.50;;;5.38;;
26822;SDS011;14852;51.910;8.878;2023-03-17T05:52:51;5.45;;;4.82;;
26822;SDS011;14852;51.910;8.878;2023-03-17T05:55:17;6.22;;;4.40;;
26822;SDS011;14852;51.910;8.878;2023-03-17T05:57:44;8.85;;;5.00;;
26822;SDS011;14852;51.910;8.878;2023-03-17T06:00:10;8.30;;;4.82;;
26822;SDS011;14852;51.910;8.878;2023-03-17T06:02:40;7.10;;;5.22;;
26822;SDS011;14852;51.910;8.878;2023-03-17T06:05:06;6.85;;;5.18;;
26822;SDS011;14852;51.910;8.878;2023-03-17T06:07:32;7.05;;;5.20;;
26822;SDS011;14852;51.910;8.878;2023-03-17T06:10:00;6.25;;;5.10;;
26822;SDS011;14852;51.910;8.878;2023-03-17T06:12:27;8.50;;;5.65;;
26822;SDS011;14852;51.910;8.878;2023-03-17T06:14:53;7.97;;;4.93;;
26822;SDS011;14852;51.910;8.878;2023-03-17T06:17:19;7.28;;;5.53;;
26822;SDS011;14852;51.910;8.878;2023-03-17T06:19:45;6.82;;;5.35;;
26822;SDS011;14852;51.910;8.878;2023-03-17T06:22:10;7.07;;;5.35;;
26822;SDS011;14852;51.910;8.878;2023-03-17T06:24:37;4.70;;;4.05;;
26822;SDS011;14852;51.910;8.878;2023-03-17T06:27:03;5.13;;;4.55;;
26822;SDS011;14852;51.910;8.878;2023-03-17T06:29:29;5.43;;;4.60;;
26822;SDS011;14852;51.910;8.878;2023-03-17T06:31:54;6.18;;;5.35;;
26822;SDS011;14852;51.910;8.878;2023-03-17T06:34:21;7.63;;;5.40;;
26822;SDS011;14852;51.910;8.878;2023-03-17T06:36:48;5.03;;;4.38;;
26822;SDS011;14852;51.910;8.878;2023-03-17T06:39:14;5.45;;;4.63;;
26822;SDS011;14852;51.910;8.878;2023-03-17T06:41:40;8.15;;;5.15;;
26822;SDS011;14852;51.910;8.878;2023-03-17T06:44:06;6.05;;;4.38;;
26822;SDS011;14852;51.910;8.878;2023-03-17T06:46:32;8.40;;;5.25;;
26822;SDS011;14852;51.910;8.878;2023-03-17T06:49:00;6.15;;;5.07;;
26822;SDS011;14852;51.910;8.878;2023-03-17T06:51:27;5.75;;;5.03;;
26822;SDS011;14852;51.910;8.878;2023-03-17T06:53:54;6.00;;;5.07;;
26822;SDS011;14852;51.910;8.878;2023-03-17T06:56:20;6.15;;;5.30;;
26822;SDS011;14852;51.910;8.878;2023-03-17T06:58:45;7.90;;;5.75;;
26822;SDS011;14852;51.910;8.878;2023-03-17T07:01:12;7.00;;;5.80;;
26822;SDS011;14852;51.910;8.878;2023-03-17T07:03:38;6.18;;;4.63;;
26822;SDS011;14852;51.910;8.878;2023-03-17T07:06:05;8.60;;;5.97;;
26822;SDS011;14852;51.910;8.878;2023-03-17T07:08:32;7.03;;;4.95;;
26822;SDS011;14852;51.910;8.878;2023-03-17T07:10:59;6.25;;;5.18;;
26822;SDS011;14852;51.910;8.878;2023-03-17T07:13:24;7.13;;;5.53;;
26822;SDS011;14852;51.910;8.878;2023-03-17T07:15:51;6.93;;;5.40;;
26822;SDS011;14852;51.910;8.878;2023-03-17T07:18:18;7.45;;;4.35;;
26822;SDS011;14852;51.910;8.878;2023-03-17T07:20:44;6.78;;;5.18;;
26822;SDS011;14852;51.910;8.878;2023-03-17T07:23:29;5.97;;;5.13;;
26822;SDS011;14852;51.910;8.878;2023-03-17T07:25:55;7.63;;;6.05;;
26822;SDS011;14852;51.910;8.878;2023-03-17T07:28:24;6.07;;;5.43;;
26822;SDS011;14852;51.910;8.878;2023-03-17T07:30:50;5.65;;;5.03;;
26822;SDS011;14852;51.910;8.878;2023-03-17T07:33:16;7.03;;;5.20;;
26822;SDS011;14852;51.910;8.878;2023-03-17T07:35:46;6.75;;;5.45;;
26822;SDS011;14852;51.910;8.878;2023-03-17T07:38:14;6.05;;;4.72;;
26822;SDS011;14852;51.910;8.878;2023-03-17T07:40:42;7.05;;;5.00;;
26822;SDS011;14852;51.910;8.878;2023-03-17T07:43:10;7.35;;;5.07;;
26822;SDS011;14852;51.910;8.878;2023-03-17T07:45:35;7.40;;;5.38;;
26822;SDS011;14852;51.910;8.878;2023-03-17T07:48:02;5.20;;;4.50;;
26822;SDS011;14852;51.910;8.878;2023-03-17T07:50:30;6.38;;;5.05;;
26822;SDS011;14852;51.910;8.878;2023-03-17T07:52:59;7.00;;;4.97;;
26822;SDS011;14852;51.910;8.878;2023-03-17T07:55:25;6.32;;;5.22;;
26822;SDS011;14852;51.910;8.878;2023-03-17T07:57:51;6.25;;;5.10;;
26822;SDS011;14852;51.910;8.878;2023-03-17T08:00:17;5.25;;;4.38;;
26822;SDS011;14852;51.910;8.878;2023-03-17T08:02:44;6.95;;;5.38;;
26822;SDS011;14852;51.910;8.878;2023-03-17T08:05:10;7.05;;;4.88;;
26822;SDS011;14852;51.910;8.878;2023-03-17T08:07:36;6.95;;;4.72;;
26822;SDS011;14852;51.910;8.878;2023-03-17T08:10:03;6.53;;;4.35;;
26822;SDS011;14852;51.910;8.878;2023-03-17T08:12:33;6.47;;;5.32;;
26822;SDS011;14852;51.910;8.878;2023-03-17T08:14:59;5.30;;;4.78;;
26822;SDS011;14852;51.910;8.878;2023-03-17T08:17:26;5.72;;;5.15;;
26822;SDS011;14852;51.910;8.878;2023-03-17T08:19:54;5.10;;;4.18;;
26822;SDS011;14852;51.910;8.878;2023-03-17T08:22:21;7.13;;;4.60;;
26822;SDS011;14852;51.910;8.878;2023-03-17T08:24:47;6.28;;;4.50;;
26822;SDS011;14852;51.910;8.878;2023-03-17T08:27:14;5.30;;;3.63;;
26822;SDS011;14852;51.910;8.878;2023-03-17T08:29:40;5.90;;;4.22;;
26822;SDS011;14852;51.910;8.878;2023-03-17T08:32:07;5.60;;;4.60;;
26822;SDS011;14852;51.910;8.878;2023-03-17T08:34:33;4.50;;;3.92;;
26822;SDS011;14852;51.910;8.878;2023-03-17T08:36:59;5.03;;;4.45;;
26822;SDS011;14852;51.910;8.878;2023-03-17T08:39:25;6.50;;;4.57;;
26822;SDS011;14852;51.910;8.878;2023-03-17T08:41:51;8.32;;;5.00;;
26822;SDS011;14852;51.910;8.878;2023-03-17T08:44:17;4.70;;;3.85;;
26822;SDS011;14852;51.910;8.878;2023-03-17T08:46:44;6.05;;;4.15;;
26822;SDS011;14852;51.910;8.878;2023-03-17T08:49:11;7.55;;;4.63;;
26822;SDS011;14852;51.910;8.878;2023-03-17T08:51:37;6.32;;;4.45;;
26822;SDS011;14852;51.910;8.878;2023-03-17T08:54:04;5.38;;;4.38;;
26822;SDS011;14852;51.910;8.878;2023-03-17T08:56:31;6.00;;;4.30;;
26822;SDS011;14852;51.910;8.878;2023-03-17T08:58:57;4.93;;;3.97;;
26822;SDS011;14852;51.910;8.878;2023-03-17T09:01:23;5.95;;;4.35;;
26822;SDS011;14852;51.910;8.878;2023-03-17T09:03:54;4.68;;;3.63;;
26822;SDS011;14852;51.910;8.878;2023-03-17T09:06:20;4.20;;;3.58;;
26822;SDS011;14852;51.910;8.878;2023-03-17T09:08:47;5.80;;;3.42;;
26822;SDS011;14852;51.910;8.878;2023-03-17T09:11:19;4.43;;;4.03;;
26822;SDS011;14852;51.910;8.878;2023-03-17T09:13:48;5.18;;;3.80;;
26822;SDS011;14852;51.910;8.878;2023-03-17T09:16:14;4.75;;;3.88;;
26822;SDS011;14852;51.910;8.878;2023-03-17T09:18:42;5.30;;;3.78;;
26822;SDS011;14852;51.910;8.878;2023-03-17T09:21:11;4.68;;;3.25;;
26822;SDS011;14852;51.910;8.878;2023-03-17T09:23:38;4.32;;;3.33;;
26822;SDS011;14852;51.910;8.878;2023-03-17T09:26:05;4.47;;;3.58;;
26822;SDS011;14852;51.910;8.878;2023-03-17T09:28:31;4.75;;;3.75;;
26822;SDS011;14852;51.910;8.878;2023-03-17T09:30:58;3.95;;;3.30;;
26822;SDS011;14852;51.910;8.878;2023-03-17T09:33:26;4.63;;;3.30;;
26822;SDS011;14852;51.910;8.878;2023-03-17T09:35:52;5.18;;;4.30;;
26822;SDS011;14852;51.910;8.878;2023-03-17T09:38:21;4.45;;;3.70;;
26822;SDS011;14852;51.910;8.878;2023-03-17T09:40:54;3.97;;;3.55;;
26822;SDS011;14852;51.910;8.878;2023-03-17T09:43:31;4.07;;;3.15;;
26822;SDS011;14852;51.910;8.878;2023-03-17T09:49:37;4.50;;;2.75;;
26822;SDS011;14852;51.910;8.878;2023-03-17T09:52:12;6.47;;;3.60;;
26822;SDS011;14852;51.910;8.878;2023-03-17T09:54:40;5.20;;;3.33;;
26822;SDS011;14852;51.910;8.878;2023-03-17T09:57:24;5.18;;;3.35;;
26822;SDS011;14852;51.910;8.878;2023-03-17T10:00:14;4.93;;;3.30;;
26822;SDS011;14852;51.910;8.878;2023-03-17T10:02:43;4.03;;;3.30;;
26822;SDS011;14852;51.910;8.878;2023-03-17T10:05:20;4.88;;;3.10;;
26822;SDS011;14852;51.910;8.878;2023-03-17T10:08:15;4.35;;;3.05;;
26822;SDS011;14852;51.910;8.878;2023-03-17T10:10:53;4.00;;;3.10;;
26822;SDS011;14852;51.910;8.878;2023-03-17T10:13:45;3.63;;;3.20;;
26822;SDS011;14852;51.910;8.878;2023-03-17T10:25:01;5.85;;;3.03;;
26822;SDS011;14852;51.910;8.878;2023-03-17T10:27:36;4.47;;;3.20;;
26822;SDS011;14852;51.910;8.878;2023-03-17T10:30:03;4.95;;;3.70;;
26822;SDS011;14852;51.910;8.878;2023-03-17T10:32:40;4.57;;;3.05;;
26822;SDS011;14852;51.910;8.878;2023-03-17T10:35:07;6.32;;;3.55;;
26822;SDS011;14852;51.910;8.878;2023-03-17T10:37:35;3.60;;;3.28;;
26822;SDS011;14852;51.910;8.878;2023-03-17T10:40:03;3.83;;;2.78;;
26822;SDS011;14852;51.910;8.878;2023-03-17T10:45:20;5.25;;;4.00;;
26822;SDS011;14852;51.910;8.878;2023-03-17T10:47:57;4.82;;;3.45;;
26822;SDS011;14852;51.910;8.878;2023-03-17T10:50:33;3.97;;;3.08;;
26822;SDS011;14852;51.910;8.878;2023-03-17T10:55:30;3.58;;;3.17;;
26822;SDS011;14852;51.910;8.878;2023-03-17T10:58:00;4.38;;;2.83;;
26822;SDS011;14852;51.910;8.878;2023-03-17T11:00:32;5.20;;;4.10;;
26822;SDS011;14852;51.910;8.878;2023-03-17T11:03:10;5.75;;;3.45;;
26822;SDS011;14852;51.910;8.878;2023-03-17T11:05:53;4.78;;;3.30;;
26822;SDS011;14852;51.910;8.878;2023-03-17T11:08:24;4.85;;;3.17;;
26822;SDS011;14852;51.910;8.878;2023-03-17T11:11:26;4.05;;;2.85;;
26822;SDS011;14852;51.910;8.878;2023-03-17T11:14:02;3.50;;;2.60;;
26822;SDS011;14852;51.910;8.878;2023-03-17T11:24:44;6.03;;;3.40;;
26822;SDS011;14852;51.910;8.878;2023-03-17T11:30:36;3.08;;;2.58;;
26822;SDS011;14852;51.910;8.878;2023-03-17T11:50:27;5.18;;;3.78;;
26822;SDS011;14852;51.910;8.878;2023-03-17T11:53:09;3.50;;;2.83;;
26822;SDS011;14852;51.910;8.878;2023-03-17T11:56:11;7.55;;;3.25;;
26822;SDS011;14852;51.910;8.878;2023-03-17T11:59:00;4.80;;;3.05;;
26822;SDS011;14852;51.910;8.878;2023-03-17T12:04:56;3.67;;;2.92;;
26822;SDS011;14852;51.910;8.878;2023-03-17T12:07:46;4.03;;;2.72;;
26822;SDS011;14852;51.910;8.878;2023-03-17T12:10:43;5.22;;;2.60;;
26822;SDS011;14852;51.910;8.878;2023-03-17T12:13:20;4.93;;;2.88;;
26822;SDS011;14852;51.910;8.878;2023-03-17T12:16:13;3.30;;;2.63;;
26822;SDS011;14852;51.910;8.878;2023-03-17T12:19:09;3.63;;;2.83;;
26822;SDS011;14852;51.910;8.878;2023-03-17T12:21:58;3.40;;;2.60;;
26822;SDS011;14852;51.910;8.878;2023-03-17T12:27:25;3.75;;;2.88;;
26822;SDS011;14852;51.910;8.878;2023-03-17T12:30:02;4.63;;;3.08;;
26822;SDS011;14852;51.910;8.878;2023-03-17T12:32:51;4.82;;;3.30;;
26822;SDS011;14852;51.910;8.878;2023-03-17T12:37:58;4.63;;;3.00;;
26822;SDS011;14852;51.910;8.878;2023-03-17T12:53:31;6.22;;;2.85;;
26822;SDS011;14852;51.910;8.878;2023-03-17T12:56:10;4.53;;;2.53;;
26822;SDS011;14852;51.910;8.878;2023-03-17T12:58:45;6.00;;;2.88;;
26822;SDS011;14852;51.910;8.878;2023-03-17T13:06:24;5.28;;;2.42;;
26822;SDS011;14852;51.910;8.878;2023-03-17T13:08:57;4.70;;;2.78;;
26822;SDS011;14852;51.910;8.878;2023-03-17T13:11:55;4.90;;;3.65;;
26822;SDS011;14852;51.910;8.878;2023-03-17T13:14:26;10.57;;;3.47;;
26822;SDS011;14852;51.910;8.878;2023-03-17T13:22:32;5.43;;;3.22;;
26822;SDS011;14852;51.910;8.878;2023-03-17T13:25:33;3.38;;;2.85;;
26822;SDS011;14852;51.910;8.878;2023-03-17T13:35:38;4.32;;;3.67;;
26822;SDS011;14852;51.910;8.878;2023-03-17T13:41:11;4.40;;;3.03;;
26822;SDS011;14852;51.910;8.878;2023-03-17T13:44:37;2.85;;;2.25;;
26822;SDS011;14852;51.910;8.878;2023-03-17T13:47:33;3.90;;;2.53;;
26822;SDS011;14852;51.910;8.878;2023-03-17T13:50:07;3.22;;;2.70;;
26822;SDS011;14852;51.910;8.878;2023-03-17T13:52:40;3.60;;;2.58;;
26822;SDS011;14852;51.910;8.878;2023-03-17T13:57:53;5.63;;;2.65;;
26822;SDS011;14852;51.910;8.878;2023-03-17T14:00:34;4.30;;;3.38;;
26822;SDS011;14852;51.910;8.878;2023-03-17T14:03:33;4.20;;;2.80;;
26822;SDS011;14852;51.910;8.878;2023-03-17T14:06:10;4.72;;;3.03;;
26822;SDS011;14852;51.910;8.878;2023-03-17T14:08:40;4.50;;;2.15;;
26822;SDS011;14852;51.910;8.878;2023-03-17T14:11:18;5.22;;;3.10;;
26822;SDS011;14852;51.910;8.878;2023-03-17T14:14:06;2.97;;;2.13;;
26822;SDS011;14852;51.910;8.878;2023-03-17T14:17:06;3.20;;;2.53;;
26822;SDS011;14852;51.910;8.878;2023-03-17T14:20:02;4.03;;;2.42;;
26822;SDS011;14852;51.910;8.878;2023-03-17T14:22:30;3.38;;;2.45;;
26822;SDS011;14852;51.910;8.878;2023-03-17T14:24:58;3.20;;;2.47;;
26822;SDS011;14852;51.910;8.878;2023-03-17T14:27:26;4.22;;;3.00;;
26822;SDS011;14852;51.910;8.878;2023-03-17T14:29:55;2.85;;;2.20;;
26822;SDS011;14852;51.910;8.878;2023-03-17T14:34:55;4.32;;;2.40;;
26822;SDS011;14852;51.910;8.878;2023-03-17T14:37:22;2.83;;;2.20;;
26822;SDS011;14852;51.910;8.878;2023-03-17T14:39:50;4.35;;;2.40;;
26822;SDS011;14852;51.910;8.878;2023-03-17T14:42:19;5.97;;;3.33;;
26822;SDS011;14852;51.910;8.878;2023-03-17T14:44:59;2.53;;;2.08;;
26822;SDS011;14852;51.910;8.878;2023-03-17T14:47:27;7.03;;;2.80;;
26822;SDS011;14852;51.910;8.878;2023-03-17T14:50:02;4.40;;;2.00;;
26822;SDS011;14852;51.910;8.878;2023-03-17T14:52:39;3.17;;;1.70;;
26822;SDS011;14852;51.910;8.878;2023-03-17T14:55:05;3.63;;;2.55;;
26822;SDS011;14852;51.910;8.878;2023-03-17T14:57:32;2.05;;;1.70;;
26822;SDS011;14852;51.910;8.878;2023-03-17T14:59:59;3.65;;;2.30;;
26822;SDS011;14852;51.910;8.878;2023-03-17T15:02:39;3.30;;;1.92;;
26822;SDS011;14852;51.910;8.878;2023-03-17T15:05:19;3.00;;;1.63;;
26822;SDS011;14852;51.910;8.878;2023-03-17T15:08:26;2.83;;;1.65;;
26822;SDS011;14852;51.910;8.878;2023-03-17T15:11:03;3.65;;;1.70;;
26822;SDS011;14852;51.910;8.878;2023-03-17T15:13:32;2.20;;;1.63;;
26822;SDS011;14852;51.910;8.878;2023-03-17T15:16:04;2.95;;;1.80;;
26822;SDS011;14852;51.910;8.878;2023-03-17T15:19:17;2.58;;;1.77;;
26822;SDS011;14852;51.910;8.878;2023-03-17T15:21:53;3.75;;;2.08;;
26822;SDS011;14852;51.910;8.878;2023-03-17T15:24:35;2.88;;;1.75;;
26822;SDS011;14852;51.910;8.878;2023-03-17T15:27:14;2.97;;;1.70;;
26822;SDS011;14852;51.910;8.878;2023-03-17T15:29:42;3.10;;;1.90;;
26822;SDS011;14852;51.910;8.878;2023-03-17T15:32:17;2.00;;;1.63;;
26822;SDS011;14852;51.910;8.878;2023-03-17T15:34:46;3.35;;;1.88;;
26822;SDS011;14852;51.910;8.878;2023-03-17T15:37:23;2.65;;;1.73;;
26822;SDS011;14852;51.910;8.878;2023-03-17T15:39:52;5.60;;;1.80;;
26822;SDS011;14852;51.910;8.878;2023-03-17T15:42:20;3.05;;;1.55;;
26822;SDS011;14852;51.910;8.878;2023-03-17T15:44:55;3.17;;;2.50;;
26822;SDS011;14852;51.910;8.878;2023-03-17T15:47:25;3.90;;;2.38;;
26822;SDS011;14852;51.910;8.878;2023-03-17T15:49:58;3.80;;;2.60;;
26822;SDS011;14852;51.910;8.878;2023-03-17T15:52:37;2.22;;;1.80;;
26822;SDS011;14852;51.910;8.878;2023-03-17T15:55:08;3.67;;;1.83;;
26822;SDS011;14852;51.910;8.878;2023-03-17T15:57:42;4.43;;;1.98;;
26822;SDS011;14852;51.910;8.878;2023-03-17T16:00:09;3.50;;;2.10;;
26822;SDS011;14852;51.910;8.878;2023-03-17T16:02:41;2.35;;;1.67;;
26822;SDS011;14852;51.910;8.878;2023-03-17T16:05:14;2.80;;;1.88;;
26822;SDS011;14852;51.910;8.878;2023-03-17T16:07:48;6.53;;;1.90;;
26822;SDS011;14852;51.910;8.878;2023-03-17T16:10:18;3.13;;;1.80;;
26822;SDS011;14852;51.910;8.878;2023-03-17T16:12:47;3.20;;;2.17;;
26822;SDS011;14852;51.910;8.878;2023-03-17T16:15:14;2.83;;;1.92;;
26822;SDS011;14852;51.910;8.878;2023-03-17T16:17:53;4.47;;;1.88;;
26822;SDS011;14852;51.910;8.878;2023-03-17T16:20:30;3.50;;;2.10;;
26822;SDS011;14852;51.910;8.878;2023-03-17T16:23:14;2.63;;;1.42;;
26822;SDS011;14852;51.910;8.878;2023-03-17T16:25:48;3.55;;;2.20;;
26822;SDS011;14852;51.910;8.878;2023-03-17T16:28:21;2.35;;;1.67;;
26822;SDS011;14852;51.910;8.878;2023-03-17T16:30:54;1.88;;;1.35;;
26822;SDS011;14852;51.910;8.878;2023-03-17T16:35:56;2.95;;;1.65;;
26822;SDS011;14852;51.910;8.878;2023-03-17T16:38:24;6.75;;;2.58;;
26822;SDS011;14852;51.910;8.878;2023-03-17T16:40:53;2.80;;;1.98;;
26822;SDS011;14852;51.910;8.878;2023-03-17T16:43:36;2.47;;;1.80;;
26822;SDS011;14852;51.910;8.878;2023-03-17T16:46:06;2.65;;;1.50;;
26822;SDS011;14852;51.910;8.878;2023-03-17T16:48:34;3.05;;;1.77;;
26822;SDS011;14852;51.910;8.878;2023-03-17T16:51:00;3.08;;;2.33;;
26822;SDS011;14852;51.910;8.878;2023-03-17T16:53:27;2.90;;;1.60;;
26822;SDS011;14852;51.910;8.878;2023-03-17T16:55:53;3.15;;;1.70;;
26822;SDS011;14852;51.910;8.878;2023-03-17T16:58:20;2.58;;;1.70;;
26822;SDS011;14852;51.910;8.878;2023-03-17T17:01:00;3.13;;;1.98;;
26822;SDS011;14852;51.910;8.878;2023-03-17T17:03:28;3.60;;;2.10;;